ENAL/AES METAR and TAF weather

Enter ICAO airport designator
Station Type Date Time Source
ENAL METAR 2018/12/10 18:20 UTC NOAA

ENAL 101820Z 35012KT 9999 VCSH FEW025 SCT074 05/01 Q1018


Station Type Date Time Source
ENAL Decoded METAR 2018/12/10 18:20 UTC NOAA

Alesund / Vigra, Norway (ENAL) 62-34N 006-07E 22M
Dec 10, 2018 - 01:20 PM EST / 2018.12.10 1820 UTC
Wind: from the N (350 degrees) at 14 MPH (12 KT):0
Visibility: greater than 7 mile(s):0
Sky conditions: partly cloudy
Weather: showers in the vicinity
Temperature: 41 F (5 C)
Dew Point: 33 F (1 C)
Relative Humidity: 75%
Pressure (altimeter): 30.06 in. Hg (1018 hPa)
ob: ENAL 101820Z 35012KT 9999 VCSH FEW025 SCT074 05/01 Q1018
cycle: 18

Station Type Date Time Source
ENAL TAF UTC NOAA

Error!


Example: see airport list